createdAt,value
2023-07-17T00:02:16.369Z,97977.49
2023-07-17T00:04:44.500Z,97978.45
2023-07-17T00:07:13.154Z,97973.64
2023-07-17T00:09:41.265Z,97970.89
2023-07-17T00:12:09.574Z,97973.76
2023-07-17T00:14:37.670Z,97971.96
2023-07-17T00:17:05.933Z,97967.94
2023-07-17T00:19:34.144Z,97964.45
2023-07-17T00:22:02.235Z,97969.42
2023-07-17T00:24:30.411Z,97969.36
2023-07-17T00:26:58.688Z,97967.17
2023-07-17T00:29:31.654Z,97968.70
2023-07-17T00:31:59.774Z,97972.43
2023-07-17T00:34:28.033Z,97970.91
2023-07-17T00:36:56.376Z,97970.08
2023-07-17T00:39:25.610Z,97968.95
2023-07-17T00:41:53.770Z,97968.42
2023-07-17T00:44:21.955Z,97971.14
2023-07-17T00:46:51.432Z,97970.43
2023-07-17T00:49:21.097Z,97972.40
2023-07-17T00:51:49.726Z,97970.43
2023-07-17T00:54:19.593Z,97975.20
2023-07-17T00:56:48.446Z,97972.02
2023-07-17T00:59:17.943Z,97974.67
2023-07-17T01:01:46.578Z,97971.72
2023-07-17T01:04:15.719Z,97972.57
2023-07-17T01:06:44.002Z,97971.63
2023-07-17T01:09:13.871Z,97969.45
2023-07-17T01:11:41.995Z,97973.11
2023-07-17T01:14:19.812Z,97975.20
2023-07-17T01:16:50.081Z,97971.08
2023-07-17T01:19:19.229Z,97972.77
2023-07-17T01:21:54.550Z,97971.33
2023-07-17T01:24:22.731Z,97968.09
2023-07-17T01:26:52.775Z,97967.80
2023-07-17T01:29:21.157Z,97968.65
2023-07-17T01:31:49.376Z,97973.05
2023-07-17T01:34:17.520Z,97977.70
2023-07-17T01:36:45.683Z,97978.60
2023-07-17T01:39:14.037Z,97979.33
2023-07-17T01:41:43.417Z,97976.05
2023-07-17T01:44:11.938Z,97973.69
2023-07-17T01:46:40.077Z,97971.61
2023-07-17T01:49:09.096Z,97974.34
2023-07-17T01:51:38.137Z,97981.63
2023-07-17T01:54:07.343Z,97989.38
2023-07-17T01:56:35.559Z,97993.27
2023-07-17T01:59:03.650Z,97992.58
2023-07-17T02:01:34.243Z,97990.80
2023-07-17T02:04:03.048Z,97996.12
2023-07-17T02:06:31.583Z,97995.79
2023-07-17T02:08:59.726Z,97994.33
2023-07-17T02:11:30.571Z,97995.89
2023-07-17T02:13:58.812Z,98001.23
2023-07-17T02:16:27.067Z,98009.64
2023-07-17T02:18:55.294Z,98004.15
2023-07-17T02:21:23.523Z,97996.90
2023-07-17T02:23:51.673Z,97989.84
2023-07-17T02:26:20.008Z,97980.06
2023-07-17T02:28:48.299Z,97975.60
2023-07-17T02:31:16.828Z,97983.70
2023-07-17T02:33:45.659Z,97987.89
2023-07-17T02:36:13.880Z,97999.46
2023-07-17T02:38:45.385Z,98001.65
2023-07-17T02:41:17.612Z,97999.41
2023-07-17T02:43:46.038Z,98000.86
2023-07-17T02:46:14.343Z,97991.67
2023-07-17T02:48:42.659Z,97991.69
2023-07-17T02:51:10.990Z,97989.92
2023-07-17T02:53:39.291Z,97990.45
2023-07-17T02:56:09.400Z,97994.88
2023-07-17T02:58:44.200Z,97994.15
2023-07-17T03:01:12.377Z,98000.60
2023-07-17T03:03:41.082Z,98004.79
2023-07-17T03:06:09.267Z,98016.54
2023-07-17T03:08:37.321Z,98014.45
2023-07-17T03:11:05.605Z,98014.52
2023-07-17T03:13:35.216Z,98017.93
2023-07-17T03:16:03.939Z,98023.65
2023-07-17T03:18:33.071Z,98023.89
2023-07-17T03:21:01.131Z,98029.58
2023-07-17T03:23:29.484Z,98030.73
2023-07-17T03:25:58.493Z,98032.38
2023-07-17T03:28:26.687Z,98026.77
2023-07-17T03:30:57.593Z,98023.44
2023-07-17T03:33:26.635Z,98027.03
2023-07-17T03:35:54.880Z,98025.95
2023-07-17T03:38:23.180Z,98024.48
2023-07-17T03:40:52.532Z,98025.68
2023-07-17T03:43:21.215Z,98027.27
2023-07-17T03:45:52.808Z,98028.17
2023-07-17T03:48:21.208Z,98024.89
2023-07-17T03:50:50.296Z,98025.05
2023-07-17T03:53:19.208Z,98023.85
2023-07-17T03:55:47.498Z,98028.67
2023-07-17T03:58:15.649Z,98037.10
2023-07-17T04:00:44.217Z,98042.46
2023-07-17T04:03:13.058Z,98046.21
2023-07-17T04:05:43.157Z,98052.89
2023-07-17T04:08:11.711Z,98056.52
2023-07-17T04:10:39.797Z,98057.64
2023-07-17T04:13:08.069Z,98053.21
2023-07-17T04:15:37.521Z,98055.16
2023-07-17T04:18:06.184Z,98055.54
2023-07-17T04:20:38.021Z,98056.20
2023-07-17T04:23:07.014Z,98049.45
2023-07-17T04:25:38.815Z,98049.38
2023-07-17T04:28:06.934Z,98051.95
2023-07-17T04:30:38.701Z,98047.45
2023-07-17T04:33:09.824Z,98047.83
2023-07-17T04:35:39.783Z,98048.13
2023-07-17T04:38:08.481Z,98049.06
2023-07-17T04:40:36.734Z,98043.95
2023-07-17T04:43:04.969Z,98043.27
2023-07-17T04:45:34.606Z,98040.30
2023-07-17T04:48:06.347Z,98040.50
2023-07-17T04:50:34.724Z,98042.35
2023-07-17T04:53:02.839Z,98049.71
2023-07-17T04:55:30.984Z,98053.98
2023-07-17T04:57:59.354Z,98059.64
2023-07-17T05:00:27.975Z,98059.81
2023-07-17T05:02:58.221Z,98064.20
2023-07-17T05:05:29.499Z,98064.29
2023-07-17T05:07:57.910Z,98068.90
2023-07-17T05:10:26.079Z,98067.33
2023-07-17T05:12:54.740Z,98065.77
2023-07-17T05:15:23.515Z,98071.40
2023-07-17T05:17:52.674Z,98072.33
2023-07-17T05:20:20.785Z,98071.99
2023-07-17T05:22:48.964Z,98069.38
2023-07-17T05:25:17.343Z,98062.09
2023-07-17T05:27:47.222Z,98064.95
2023-07-17T05:30:17.039Z,98064.39
2023-07-17T05:32:45.184Z,98065.94
2023-07-17T05:35:14.469Z,98066.06
2023-07-17T05:37:43.378Z,98056.62
2023-07-17T05:40:12.286Z,98057.24
2023-07-17T05:42:40.550Z,98050.27
2023-07-17T05:45:09.879Z,98052.45
2023-07-17T05:47:39.436Z,98055.63
2023-07-17T05:50:08.298Z,98052.48
2023-07-17T05:52:37.332Z,98053.59
2023-07-17T05:55:06.116Z,98054.39
2023-07-17T05:57:34.458Z,98055.81
2023-07-17T06:00:05.033Z,98060.33
2023-07-17T06:02:44.335Z,98060.90
2023-07-17T06:05:12.865Z,98063.58
2023-07-17T06:07:41.274Z,98062.04
2023-07-17T06:10:11.585Z,98066.45
2023-07-17T06:12:43.639Z,98067.32
2023-07-17T06:15:14.809Z,98066.92
2023-07-17T06:17:43.063Z,98065.30
2023-07-17T06:20:11.843Z,98071.74
2023-07-17T06:22:39.995Z,98072.94
2023-07-17T06:25:08.747Z,98072.46
2023-07-17T06:27:36.794Z,98073.36
2023-07-17T06:30:05.823Z,98072.11
2023-07-17T06:32:34.577Z,98070.42
2023-07-17T06:35:02.867Z,98063.84
2023-07-17T06:37:30.897Z,98064.19
2023-07-17T06:39:59.308Z,98066.52
2023-07-17T06:42:27.711Z,98062.11
2023-07-17T06:44:58.246Z,98056.84
2023-07-17T06:47:36.456Z,98053.48
2023-07-17T06:50:06.877Z,98053.36
2023-07-17T06:52:35.436Z,98051.19
2023-07-17T06:55:05.950Z,98048.39
2023-07-17T06:57:34.427Z,98048.52
2023-07-17T07:00:02.546Z,98044.04
2023-07-17T07:02:31.021Z,98045.88
2023-07-17T07:04:59.346Z,98047.33
2023-07-17T07:07:27.506Z,98049.42
2023-07-17T07:09:55.706Z,98050.00
2023-07-17T07:12:24.222Z,98049.77
2023-07-17T07:14:53.370Z,98049.55
2023-07-17T07:17:21.540Z,98046.50
2023-07-17T07:19:51.228Z,98042.42
2023-07-17T07:22:19.502Z,98045.02
2023-07-17T07:24:48.046Z,98041.96
2023-07-17T07:27:17.392Z,98040.14
2023-07-17T07:29:45.582Z,98045.48
2023-07-17T07:32:13.574Z,98042.32
2023-07-17T07:34:42.061Z,98043.11
2023-07-17T07:37:10.661Z,98038.64
2023-07-17T07:39:38.868Z,98032.92
2023-07-17T07:42:08.136Z,98024.07
2023-07-17T07:44:36.370Z,98021.04
2023-07-17T07:47:06.513Z,98016.05
2023-07-17T07:49:34.779Z,98017.73
2023-07-17T07:52:03.070Z,98016.71
2023-07-17T07:54:31.405Z,98017.42
2023-07-17T07:56:59.869Z,98017.30
2023-07-17T07:59:28.012Z,98020.16
2023-07-17T08:01:56.156Z,98017.32
2023-07-17T08:04:24.691Z,98015.48
2023-07-17T08:06:53.326Z,98019.38
2023-07-17T08:09:21.487Z,98016.26
2023-07-17T08:11:49.934Z,98011.95
2023-07-17T08:14:18.459Z,98012.75
2023-07-17T08:16:46.998Z,98011.40
2023-07-17T08:19:15.102Z,98007.91
2023-07-17T08:21:43.833Z,98011.80
2023-07-17T08:24:12.193Z,98009.92
2023-07-17T08:26:41.624Z,98004.02
2023-07-17T08:29:09.844Z,98005.83
2023-07-17T08:31:38.663Z,98004.35
2023-07-17T08:34:06.901Z,98007.70
2023-07-17T08:36:34.928Z,98002.36
2023-07-17T08:39:06.262Z,98006.82
2023-07-17T08:41:36.600Z,98003.31
2023-07-17T08:44:05.284Z,98000.42
2023-07-17T08:46:34.406Z,98002.91
2023-07-17T08:49:03.759Z,98002.73
2023-07-17T08:51:32.188Z,98005.98
2023-07-17T08:54:27.128Z,98003.32
2023-07-17T08:56:52.573Z,98004.01
2023-07-17T08:59:21.728Z,98002.31
2023-07-17T09:01:53.093Z,98000.25
2023-07-17T09:04:22.303Z,98001.63
2023-07-17T09:06:52.060Z,97998.23
2023-07-17T09:09:20.468Z,97995.41
2023-07-17T09:12:08.252Z,97995.88
2023-07-17T09:14:37.952Z,97991.15
2023-07-17T09:17:09.247Z,97989.22
2023-07-17T09:19:38.558Z,97986.11
2023-07-17T09:22:08.551Z,97981.81
2023-07-17T09:24:38.055Z,97984.88
2023-07-17T09:27:08.119Z,97980.96
2023-07-17T09:29:43.122Z,97979.32
2023-07-17T09:32:17.028Z,97979.82
2023-07-17T09:34:45.458Z,97978.39
2023-07-17T09:37:13.554Z,97979.10
2023-07-17T09:39:42.073Z,97972.68
2023-07-17T09:42:24.366Z,97967.35
2023-07-17T09:44:53.777Z,97968.78
2023-07-17T09:47:22.964Z,97960.09
2023-07-17T09:49:55.767Z,97954.19
2023-07-17T09:52:25.164Z,97958.00
2023-07-17T09:54:53.425Z,97954.94
2023-07-17T09:57:29.191Z,97949.46
2023-07-17T10:00:06.156Z,97953.98
2023-07-17T10:02:39.603Z,97950.95
2023-07-17T10:05:08.165Z,97955.46
2023-07-17T10:07:44.095Z,97952.38
2023-07-17T10:10:12.264Z,97959.54
2023-07-17T10:12:42.828Z,97967.52
2023-07-17T10:15:12.647Z,97961.39
2023-07-17T10:17:42.005Z,97958.44
2023-07-17T10:20:13.839Z,97954.12
2023-07-17T10:22:46.884Z,97948.82
2023-07-17T10:25:20.830Z,97945.13
2023-07-17T10:28:02.345Z,97939.80
2023-07-17T10:30:37.826Z,97938.15
2023-07-17T10:33:07.366Z,97941.95
2023-07-17T10:35:52.669Z,97948.59
2023-07-17T10:38:29.276Z,97950.73
2023-07-17T10:41:14.001Z,97947.01
2023-07-17T10:44:17.166Z,97950.80
2023-07-17T10:46:47.177Z,97950.48
2023-07-17T10:49:17.843Z,97944.02
2023-07-17T10:51:47.201Z,97937.94
2023-07-17T10:54:19.518Z,97933.69
2023-07-17T10:56:49.629Z,97935.37
2023-07-17T10:59:19.126Z,97938.81
2023-07-17T11:01:47.774Z,97940.69
2023-07-17T11:04:18.956Z,97934.05
2023-07-17T11:06:47.204Z,97936.37
2023-07-17T11:09:17.630Z,97940.12
2023-07-17T11:11:47.192Z,97942.68
2023-07-17T11:14:19.060Z,97936.55
2023-07-17T11:16:47.205Z,97933.13
2023-07-17T11:19:16.648Z,97929.93
2023-07-17T11:21:49.269Z,97920.14
2023-07-17T11:24:17.471Z,97922.27
2023-07-17T11:26:45.623Z,97923.10
2023-07-17T11:29:14.071Z,97912.13
2023-07-17T11:31:42.492Z,97910.55
2023-07-17T11:34:12.234Z,97910.77
2023-07-17T11:36:44.181Z,97918.81
2023-07-17T11:39:14.901Z,97917.43
2023-07-17T11:41:50.739Z,97915.54
2023-07-17T11:44:26.121Z,97909.28
2023-07-17T11:47:01.022Z,97907.06
2023-07-17T11:49:29.976Z,97910.25
2023-07-17T11:51:58.584Z,97909.56
2023-07-17T11:54:30.541Z,97910.27
2023-07-17T11:57:04.231Z,97907.71
2023-07-17T11:59:33.240Z,97907.71
2023-07-17T12:02:01.872Z,97905.64
2023-07-17T12:04:36.123Z,97907.67
2023-07-17T12:07:05.953Z,97912.25
2023-07-17T12:09:34.679Z,97904.85
2023-07-17T12:12:02.771Z,97895.52
2023-07-17T12:14:30.822Z,97901.77
2023-07-17T12:17:00.221Z,97893.40
2023-07-17T12:19:28.350Z,97884.76
2023-07-17T12:21:56.499Z,97874.45
2023-07-17T12:24:25.256Z,97872.19
2023-07-17T12:26:53.486Z,97870.02
2023-07-17T12:29:21.512Z,97863.07
2023-07-17T12:31:50.116Z,97861.55
2023-07-17T12:34:18.434Z,97856.66
2023-07-17T12:36:46.798Z,97853.66
2023-07-17T12:39:16.239Z,97850.95
2023-07-17T12:41:45.477Z,97853.55
2023-07-17T12:44:13.656Z,97859.05
2023-07-17T12:46:41.830Z,97858.31
2023-07-17T12:49:09.994Z,97861.16
2023-07-17T12:51:37.944Z,97861.73
2023-07-17T12:54:06.935Z,97854.76
2023-07-17T12:56:35.090Z,97858.27
2023-07-17T12:59:03.247Z,97851.85
2023-07-17T13:01:31.347Z,97850.73
2023-07-17T13:04:00.161Z,97839.44
2023-07-17T13:06:28.525Z,97829.47
2023-07-17T13:08:56.958Z,97828.17
2023-07-17T13:11:25.038Z,97824.86
2023-07-17T13:13:53.215Z,97815.47
2023-07-17T13:16:21.601Z,97813.29
2023-07-17T13:18:50.464Z,97808.67
2023-07-17T13:21:18.991Z,97809.38
2023-07-17T13:23:47.420Z,97811.65
2023-07-17T13:26:15.664Z,97819.70
2023-07-17T13:28:43.824Z,97819.33
2023-07-17T13:31:12.467Z,97816.04
2023-07-17T13:33:40.732Z,97822.03
2023-07-17T13:36:08.851Z,97815.11
2023-07-17T13:38:37.090Z,97812.77
2023-07-17T13:41:21.049Z,97818.71
2023-07-17T13:43:49.552Z,97818.23
2023-07-17T13:46:17.915Z,97812.12
2023-07-17T13:48:46.360Z,97809.80
2023-07-17T13:51:14.438Z,97806.45
2023-07-17T13:53:42.451Z,97800.16
2023-07-17T13:57:02.598Z,97799.13
2023-07-17T13:59:03.619Z,97803.89
2023-07-17T14:01:32.523Z,97801.27
2023-07-17T14:04:02.919Z,97799.77
2023-07-17T14:06:32.796Z,97792.69
2023-07-17T14:09:01.229Z,97792.33
2023-07-17T14:11:31.358Z,97785.52
2023-07-17T14:14:02.016Z,97787.70
2023-07-17T14:16:31.096Z,97779.70
2023-07-17T14:19:01.169Z,97781.77
2023-07-17T14:21:29.503Z,97783.55
2023-07-17T14:23:58.047Z,97781.47
2023-07-17T14:26:26.214Z,97787.98
2023-07-17T14:28:54.260Z,97784.25
2023-07-17T14:31:22.418Z,97778.89
2023-07-17T14:33:50.666Z,97771.44
2023-07-17T14:36:19.023Z,97765.92
2023-07-17T14:38:47.634Z,97763.84
2023-07-17T14:41:15.786Z,97766.34
2023-07-17T14:43:43.795Z,97768.59
2023-07-17T14:46:12.128Z,97768.09
2023-07-17T14:48:40.293Z,97759.66
2023-07-17T14:51:08.540Z,97759.27
2023-07-17T14:53:36.716Z,97753.41
2023-07-17T14:56:05.594Z,97748.89
2023-07-17T14:58:33.798Z,97744.85
2023-07-17T15:01:02.757Z,97743.82
2023-07-17T15:03:31.049Z,97744.27
2023-07-17T15:05:59.310Z,97742.45
2023-07-17T15:08:27.446Z,97742.70
2023-07-17T15:10:56.104Z,97740.52
2023-07-17T15:13:26.205Z,97742.41
2023-07-17T15:15:56.219Z,97740.16
2023-07-17T15:18:24.392Z,97739.26
2023-07-17T15:20:52.661Z,97738.27
2023-07-17T15:23:20.696Z,97740.95
2023-07-17T15:25:48.678Z,97738.08
2023-07-17T15:28:17.289Z,97735.27
2023-07-17T15:30:45.471Z,97734.23
2023-07-17T15:33:13.886Z,97739.05
2023-07-17T15:35:41.907Z,97735.38
2023-07-17T15:38:10.257Z,97736.37
2023-07-17T15:40:38.229Z,97739.47
2023-07-17T15:43:06.761Z,97738.64
2023-07-17T15:45:35.105Z,97731.05
2023-07-17T15:48:03.461Z,97726.70
2023-07-17T15:50:31.698Z,97723.30
2023-07-17T15:52:59.913Z,97726.67
2023-07-17T15:55:28.087Z,97729.77
2023-07-17T15:57:56.196Z,97730.87
2023-07-17T16:00:24.595Z,97730.48
2023-07-17T16:02:53.077Z,97732.60
2023-07-17T16:05:21.699Z,97739.77
2023-07-17T16:07:50.090Z,97745.45
2023-07-17T16:10:18.459Z,97748.33
2023-07-17T16:12:46.565Z,97748.40
2023-07-17T16:15:14.767Z,97748.10
2023-07-17T16:17:42.843Z,97749.60
2023-07-17T16:20:11.560Z,97752.52
2023-07-17T16:22:39.922Z,97756.83
2023-07-17T16:25:08.333Z,97759.03
2023-07-17T16:27:36.262Z,97755.92
2023-07-17T16:30:05.332Z,97753.88
2023-07-17T16:32:33.614Z,97746.38
2023-07-17T16:35:01.938Z,97749.02
2023-07-17T16:37:30.169Z,97754.58
2023-07-17T16:39:58.241Z,97763.88
2023-07-17T16:42:26.422Z,97763.63
2023-07-17T16:44:54.597Z,97756.30
2023-07-17T16:47:22.852Z,97739.52
2023-07-17T16:49:51.101Z,97738.41
2023-07-17T16:52:19.145Z,97741.84
2023-07-17T16:54:47.540Z,97741.09
2023-07-17T16:57:15.804Z,97745.48
2023-07-17T16:59:43.909Z,97741.66
2023-07-17T17:02:12.201Z,97738.08
2023-07-17T17:04:40.698Z,97736.65
2023-07-17T17:07:08.802Z,97742.33
2023-07-17T17:09:37.054Z,97738.27
2023-07-17T17:12:05.875Z,97731.33
2023-07-17T17:14:34.517Z,97733.73
2023-07-17T17:17:02.655Z,97741.39
2023-07-17T17:19:30.769Z,97749.18
2023-07-17T17:21:58.824Z,97751.15
2023-07-17T17:24:27.116Z,97755.70
2023-07-17T17:26:55.148Z,97754.92
2023-07-17T17:29:23.541Z,97756.73
2023-07-17T17:31:52.033Z,97753.98
2023-07-17T17:34:20.333Z,97750.70
2023-07-17T17:36:48.424Z,97752.85
2023-07-17T17:39:16.626Z,97757.77
2023-07-17T17:41:45.037Z,97759.94
2023-07-17T17:44:13.940Z,97754.75
2023-07-17T17:46:42.079Z,97754.48
2023-07-17T17:49:11.235Z,97754.71
2023-07-17T17:51:39.690Z,97748.52
2023-07-17T17:54:08.052Z,97744.11
2023-07-17T17:56:36.040Z,97750.20
2023-07-17T17:59:04.521Z,97748.48
2023-07-17T18:01:32.572Z,97753.13
2023-07-17T18:04:02.614Z,97756.77
2023-07-17T18:06:31.154Z,97760.97
2023-07-17T18:08:59.338Z,97762.68
2023-07-17T18:11:27.547Z,97757.23
2023-07-17T18:13:59.898Z,97749.48
2023-07-17T18:16:27.985Z,97745.63
2023-07-17T18:18:57.593Z,97742.84
2023-07-17T18:21:25.883Z,97742.02
2023-07-17T18:23:54.070Z,97747.33
2023-07-17T18:26:22.178Z,97748.95
2023-07-17T18:28:50.414Z,97747.02
2023-07-17T18:31:18.721Z,97738.78
2023-07-17T18:33:47.353Z,97730.63
2023-07-17T18:36:16.666Z,97731.19
2023-07-17T18:38:44.944Z,97730.59
2023-07-17T18:41:13.171Z,97725.77
2023-07-17T18:43:41.323Z,97725.03
2023-07-17T18:46:09.463Z,97730.67
2023-07-17T18:48:37.943Z,97734.02
2023-07-17T18:51:06.269Z,97737.81
2023-07-17T18:53:34.315Z,97742.59
2023-07-17T18:56:02.774Z,97739.36
2023-07-17T18:58:30.921Z,97736.27
2023-07-17T19:00:59.234Z,97729.85
2023-07-17T19:03:27.358Z,97729.48
2023-07-17T19:05:57.164Z,97730.30
2023-07-17T19:08:27.190Z,97728.09
2023-07-17T19:10:55.294Z,97730.31
2023-07-17T19:13:23.439Z,97738.14
2023-07-17T19:15:52.177Z,97741.66
2023-07-17T19:18:20.483Z,97748.27
2023-07-17T19:20:48.753Z,97753.52
2023-07-17T19:23:17.053Z,97761.23
2023-07-17T19:25:45.304Z,97775.33
2023-07-17T19:28:13.373Z,97780.16
2023-07-17T19:30:41.667Z,97779.91
2023-07-17T19:33:09.901Z,97779.10
2023-07-17T19:35:38.123Z,97779.76
2023-07-17T19:38:06.583Z,97786.11
2023-07-17T19:40:34.833Z,97791.33
2023-07-17T19:43:02.862Z,97800.32
2023-07-17T19:45:30.944Z,97813.73
2023-07-17T19:47:59.448Z,97816.67
2023-07-17T19:50:28.322Z,97817.02
2023-07-17T19:52:56.611Z,97807.55
2023-07-17T19:55:24.800Z,97795.00
2023-07-17T19:57:53.228Z,97790.73
2023-07-17T20:00:21.364Z,97795.30
2023-07-17T20:02:49.668Z,97810.73
2023-07-17T20:05:17.963Z,97849.84
2023-07-17T20:07:46.074Z,97883.48
2023-07-17T20:10:15.185Z,97893.17
2023-07-17T20:12:43.299Z,97895.09
2023-07-17T20:15:11.392Z,97900.60
2023-07-17T20:17:40.035Z,97904.63
2023-07-17T20:20:11.813Z,97905.22
2023-07-17T20:22:41.340Z,97917.77
2023-07-17T20:25:11.070Z,97918.48
2023-07-17T20:27:43.265Z,97912.30
2023-07-17T20:30:13.801Z,97897.19
2023-07-17T20:32:42.372Z,97885.77
2023-07-17T20:35:26.701Z,97888.11
2023-07-17T20:37:57.212Z,97882.51
2023-07-17T20:40:25.996Z,97879.44
2023-07-17T20:42:55.428Z,97878.92
2023-07-17T20:45:34.192Z,97880.73
2023-07-17T20:48:02.727Z,97893.48
2023-07-17T20:50:30.976Z,97906.92
2023-07-17T20:52:59.299Z,97912.66
2023-07-17T20:55:27.463Z,97928.09
2023-07-17T20:57:55.853Z,97939.60
2023-07-17T21:00:24.051Z,97948.48
2023-07-17T21:02:52.270Z,97945.52
2023-07-17T21:05:25.631Z,97942.36
2023-07-17T21:07:53.679Z,97935.39
2023-07-17T21:10:21.809Z,97937.73
2023-07-17T21:12:52.193Z,97935.25
2023-07-17T21:15:20.389Z,97938.73
2023-07-17T21:17:48.664Z,97936.23
2023-07-17T21:20:16.827Z,97920.66
2023-07-17T21:22:44.932Z,97911.39
2023-07-17T21:25:13.400Z,97920.20
2023-07-17T21:27:41.508Z,97936.88
2023-07-17T21:30:10.581Z,97945.08
2023-07-17T21:32:38.983Z,97946.59
2023-07-17T21:35:07.774Z,97949.92
2023-07-17T21:37:35.909Z,97950.45
2023-07-17T21:40:04.604Z,97949.48
2023-07-17T21:42:33.164Z,97946.55
2023-07-17T21:45:02.264Z,97943.29
2023-07-17T21:47:30.427Z,97947.77
2023-07-17T21:49:58.752Z,97962.44
2023-07-17T21:52:27.435Z,97973.20
2023-07-17T21:54:55.798Z,97979.29
2023-07-17T21:57:24.307Z,97979.48
2023-07-17T21:59:54.275Z,97981.31
2023-07-17T22:02:22.868Z,97978.43
2023-07-17T22:04:51.090Z,97972.83
2023-07-17T22:07:19.161Z,97961.02
2023-07-17T22:09:51.382Z,97945.98
2023-07-17T22:12:20.447Z,97930.96
2023-07-17T22:14:52.570Z,97913.20
2023-07-17T22:17:22.541Z,97890.23
2023-07-17T22:19:52.750Z,97867.14
2023-07-17T22:22:21.370Z,97863.75
2023-07-17T22:24:51.310Z,97873.33
2023-07-17T22:27:19.733Z,97876.23
2023-07-17T22:29:48.302Z,97873.80
2023-07-17T22:32:17.161Z,97869.20
2023-07-17T22:34:46.932Z,97863.68
2023-07-17T22:37:19.195Z,97863.52
2023-07-17T22:39:48.025Z,97849.25
2023-07-17T22:42:19.267Z,97847.35
2023-07-17T22:44:47.443Z,97840.09
2023-07-17T22:47:15.625Z,97832.80
2023-07-17T22:49:43.660Z,97830.74
2023-07-17T22:52:11.755Z,97832.30
2023-07-17T22:54:40.288Z,97835.45
2023-07-17T22:57:08.447Z,97833.60
2023-07-17T22:59:37.326Z,97827.79
2023-07-17T23:02:06.756Z,97822.44
2023-07-17T23:04:35.100Z,97820.18
2023-07-17T23:07:03.687Z,97821.02
2023-07-17T23:09:33.603Z,97822.29
2023-07-17T23:12:01.855Z,97823.90
2023-07-17T23:14:33.672Z,97819.38
2023-07-17T23:17:05.108Z,97815.79
2023-07-17T23:19:33.207Z,97812.11
2023-07-17T23:22:01.289Z,97806.02
2023-07-17T23:24:29.413Z,97800.13
2023-07-17T23:26:57.429Z,97796.14
2023-07-17T23:29:25.882Z,97795.53
2023-07-17T23:31:53.970Z,97788.79
2023-07-17T23:34:22.379Z,97789.80
2023-07-17T23:36:50.597Z,97785.36
2023-07-17T23:39:22.283Z,97786.21
2023-07-17T23:41:51.063Z,97787.20
2023-07-17T23:44:19.121Z,97787.68
2023-07-17T23:46:47.172Z,97785.46
2023-07-17T23:49:15.299Z,97781.63
2023-07-17T23:51:44.694Z,97780.92
2023-07-17T23:54:13.818Z,97780.35
2023-07-17T23:56:42.993Z,97781.93
2023-07-17T23:59:11.411Z,97783.80
